Agan, China

37°F / 3°C
Clear
Windchill: 34°F / 1°C
Humidity: 56%
Dew Point: 23°F / -5°C
Wind: Variable at 4 mph / 7 km/h
Pressure: 30.12 in / 1020 hPa (Steady)
Visibility: 5.0 miles / 8.0 kilometers
Clouds:
Yesterday's Maximum: 48°F / 9°C
Yesterday's Minimum: 25°F / -4°C approx.
Yesterday's Heating Degree Days: 29 approx.
Sunrise:7:44 AM CST
Sunset:6:52 PM CST
Moon Rise:10:01 PM CST
Moon Set:9:35 AM CST
Moon Phase Waning Gibbous
NOAA Weather Radio
No local feed.
METAR ZLLL 220300Z VRB02MPS 8000 NSC 03/M05 Q1020 NOSIG
As of: 11:00 AM CST on February 22, 2019
Observed at: Lanzhou, China

View Station's History

Local Satellite

Current Satellite Forecast
Region Default Local
No Yes

View Full Screen WunderMap

Forecast

Current Satellite Forecast
Thursday
. High: 48° F. / 8° C.

. High: 37° F. / 3° C.

Features

Weather Apps

WunderRadio

Weather Underground Apps
Check out our wide variety of mobile and setup applications.

Weather Underground Applications

Top of Page

© Copyright 2019
The Weather Company, LLC